createdAt,value
2019-03-16T00:03:48.546Z,66.10
2019-03-16T00:08:50.133Z,66.03
2019-03-16T00:13:51.808Z,65.93
2019-03-16T00:18:53.400Z,65.86
2019-03-16T00:23:54.983Z,65.83
2019-03-16T00:28:56.587Z,65.81
2019-03-16T00:33:58.268Z,65.79
2019-03-16T00:38:59.969Z,65.89
2019-03-16T00:44:01.694Z,65.92
2019-03-16T00:49:03.344Z,65.89
2019-03-16T00:54:05.060Z,66.00
2019-03-16T00:59:06.939Z,66.04
2019-03-16T01:04:08.508Z,66.15
2019-03-16T01:09:10.222Z,66.04
2019-03-16T01:14:11.945Z,66.04
2019-03-16T01:19:13.514Z,66.07
2019-03-16T01:24:15.209Z,65.99
2019-03-16T01:29:16.803Z,66.05
2019-03-16T01:34:18.403Z,66.01
2019-03-16T01:39:20.028Z,66.08
2019-03-16T01:44:21.773Z,66.04
2019-03-16T01:49:23.313Z,66.09
2019-03-16T01:54:24.877Z,66.00
2019-03-16T01:59:26.505Z,65.97
2019-03-16T02:04:28.082Z,65.99
2019-03-16T02:09:29.636Z,65.95
2019-03-16T02:14:31.206Z,65.98
2019-03-16T02:19:35.821Z,66.00
2019-03-16T02:24:36.268Z,65.97
2019-03-16T02:29:37.946Z,65.95
2019-03-16T02:34:39.519Z,65.92
2019-03-16T02:39:41.106Z,65.88
2019-03-16T02:44:42.690Z,65.89
2019-03-16T02:49:44.277Z,65.77
2019-03-16T02:54:46.048Z,65.75
2019-03-16T02:59:47.642Z,65.71
2019-03-16T03:04:49.370Z,65.62
2019-03-16T03:09:51.022Z,65.52
2019-03-16T03:14:52.742Z,65.48
2019-03-16T03:19:54.471Z,65.43
2019-03-16T03:24:56.097Z,65.40
2019-03-16T03:29:57.922Z,65.37
2019-03-16T03:34:59.560Z,65.34
2019-03-16T03:40:01.184Z,65.32
2019-03-16T03:45:03.523Z,65.28
2019-03-16T03:50:05.678Z,65.25
2019-03-16T03:55:07.394Z,65.31
2019-03-16T04:00:09.684Z,65.32
2019-03-16T04:05:11.536Z,65.35
2019-03-16T04:10:13.445Z,65.39
2019-03-16T04:15:15.162Z,65.44
2019-03-16T04:20:16.898Z,65.45
2019-03-16T04:25:18.583Z,65.47
2019-03-16T04:30:20.187Z,65.50
2019-03-16T04:35:21.825Z,65.50
2019-03-16T04:40:23.425Z,65.54
2019-03-16T04:45:25.041Z,65.57
2019-03-16T04:50:26.650Z,65.55
2019-03-16T04:55:28.310Z,65.56
2019-03-16T05:00:29.865Z,65.63
2019-03-16T05:05:31.554Z,65.60
2019-03-16T05:10:33.136Z,65.59
2019-03-16T05:15:34.846Z,65.60
2019-03-16T05:20:36.429Z,65.58
2019-03-16T05:25:38.111Z,65.54
2019-03-16T05:30:39.742Z,65.51
2019-03-16T05:35:41.426Z,65.52
2019-03-16T05:40:42.998Z,65.53
2019-03-16T05:45:44.627Z,65.56
2019-03-16T05:50:46.217Z,65.52
2019-03-16T05:55:47.812Z,65.54
2019-03-16T06:00:49.406Z,65.53
2019-03-16T06:05:51.035Z,65.53
2019-03-16T06:10:52.893Z,65.53
2019-03-16T06:15:54.501Z,65.50
2019-03-16T06:20:56.216Z,65.53
2019-03-16T06:25:57.842Z,65.49
2019-03-16T06:30:59.458Z,65.46
2019-03-16T06:36:01.267Z,65.40
2019-03-16T06:41:02.957Z,65.40
2019-03-16T06:46:04.716Z,65.30
2019-03-16T06:51:06.296Z,65.24
2019-03-16T06:56:07.894Z,65.24
2019-03-16T07:01:09.474Z,65.25
2019-03-16T07:06:11.198Z,65.18
2019-03-16T07:11:13.310Z,65.16
2019-03-16T07:16:14.932Z,65.10
2019-03-16T07:21:16.490Z,65.03
2019-03-16T07:26:18.087Z,65.00
2019-03-16T07:31:19.698Z,65.01
2019-03-16T07:36:21.290Z,64.96
2019-03-16T07:41:23.595Z,64.98
2019-03-16T07:46:25.184Z,64.92
2019-03-16T07:51:26.871Z,64.92
2019-03-16T07:56:28.595Z,64.92
2019-03-16T08:01:30.209Z,64.95
2019-03-16T08:06:33.392Z,64.94
2019-03-16T08:11:38.529Z,64.90
2019-03-16T08:16:40.129Z,64.79
2019-03-16T08:21:41.687Z,64.75
2019-03-16T08:26:43.230Z,64.79
2019-03-16T08:31:44.823Z,64.90
2019-03-16T08:36:46.430Z,64.96
2019-03-16T08:41:48.102Z,64.95
2019-03-16T08:46:49.793Z,64.97
2019-03-16T08:51:51.470Z,65.04
2019-03-16T08:56:53.117Z,65.14
2019-03-16T09:01:54.721Z,65.24
2019-03-16T09:06:56.362Z,65.36
2019-03-16T09:11:58.373Z,65.45
2019-03-16T09:17:00.067Z,65.54
2019-03-16T09:22:01.610Z,65.62
2019-03-16T09:27:03.321Z,65.78
2019-03-16T09:32:04.885Z,65.97
2019-03-16T09:37:06.490Z,66.06
2019-03-16T09:42:08.170Z,66.04
2019-03-16T09:47:09.896Z,66.13
2019-03-16T09:52:11.578Z,66.22
2019-03-16T09:57:13.228Z,66.35
2019-03-16T10:02:15.991Z,66.46
2019-03-16T10:07:17.657Z,66.64
2019-03-16T10:12:19.311Z,66.76
2019-03-16T10:17:21.064Z,66.92
2019-03-16T10:22:22.688Z,67.01
2019-03-16T10:27:24.269Z,67.26
2019-03-16T10:32:25.826Z,67.36
2019-03-16T10:37:27.476Z,67.34
2019-03-16T10:42:29.073Z,67.41
2019-03-16T10:47:30.730Z,67.56
2019-03-16T10:52:32.329Z,67.62
2019-03-16T10:57:33.981Z,67.87
2019-03-16T11:02:35.720Z,68.00
2019-03-16T11:07:37.283Z,68.20
2019-03-16T11:12:38.852Z,68.35
2019-03-16T11:17:40.420Z,68.26
2019-03-16T11:22:41.949Z,68.25
2019-03-16T11:27:43.751Z,68.33
2019-03-16T11:32:45.300Z,68.44
2019-03-16T11:37:46.875Z,68.50
2019-03-16T11:42:48.448Z,68.56
2019-03-16T11:47:50.017Z,68.75
2019-03-16T11:52:52.037Z,68.86
2019-03-16T11:57:53.636Z,68.97
2019-03-16T12:02:55.260Z,69.24
2019-03-16T12:07:57.006Z,69.44
2019-03-16T12:12:58.581Z,69.63
2019-03-16T12:18:00.131Z,69.85
2019-03-16T12:23:01.698Z,69.93
2019-03-16T12:28:03.405Z,70.06
2019-03-16T12:33:05.153Z,70.07
2019-03-16T12:38:06.762Z,69.93
2019-03-16T12:43:08.445Z,69.85
2019-03-16T12:48:10.121Z,69.78
2019-03-16T12:53:11.693Z,69.84
2019-03-16T12:58:13.279Z,70.10
2019-03-16T13:03:15.033Z,70.30
2019-03-16T13:08:16.656Z,70.32
2019-03-16T13:13:18.246Z,70.47
2019-03-16T13:18:19.818Z,70.66
2019-03-16T13:23:21.385Z,70.77
2019-03-16T13:28:22.987Z,70.94
2019-03-16T13:33:24.520Z,71.11
2019-03-16T13:38:26.194Z,71.31
2019-03-16T13:43:27.846Z,71.44
2019-03-16T13:48:29.419Z,71.50
2019-03-16T13:53:32.687Z,71.55
2019-03-16T13:58:34.550Z,71.73
2019-03-16T14:03:36.147Z,71.91
2019-03-16T14:08:38.087Z,72.08
2019-03-16T14:13:39.694Z,72.17
2019-03-16T14:18:41.469Z,72.28
2019-03-16T14:23:43.148Z,72.40
2019-03-16T14:28:44.723Z,72.52
2019-03-16T14:33:46.365Z,72.65
2019-03-16T14:38:47.945Z,72.77
2019-03-16T14:43:49.522Z,72.82
2019-03-16T14:48:51.138Z,72.92
2019-03-16T14:53:53.203Z,72.93
2019-03-16T14:58:54.870Z,72.93
2019-03-16T15:03:56.482Z,72.93
2019-03-16T15:08:58.045Z,72.91
2019-03-16T15:13:59.732Z,72.93
2019-03-16T15:19:01.303Z,72.87
2019-03-16T15:24:03.085Z,72.85
2019-03-16T15:29:04.825Z,72.83
2019-03-16T15:34:06.393Z,72.82
2019-03-16T15:39:07.974Z,72.78
2019-03-16T15:44:09.561Z,72.78
2019-03-16T15:49:11.117Z,72.82
2019-03-16T15:54:12.678Z,72.97
2019-03-16T15:59:14.246Z,73.11
2019-03-16T16:04:15.800Z,73.17
2019-03-16T16:09:17.480Z,72.96
2019-03-16T16:14:19.083Z,72.95
2019-03-16T16:19:21.948Z,72.88
2019-03-16T16:24:23.753Z,72.86
2019-03-16T16:29:25.332Z,72.90
2019-03-16T16:34:26.976Z,72.90
2019-03-16T16:39:28.691Z,72.83
2019-03-16T16:44:30.313Z,72.80
2019-03-16T16:49:31.893Z,72.78
2019-03-16T16:54:33.690Z,72.70
2019-03-16T16:59:35.240Z,72.68
2019-03-16T17:04:36.953Z,72.70
2019-03-16T17:09:38.640Z,72.70
2019-03-16T17:14:40.295Z,72.68
2019-03-16T17:19:41.873Z,72.68
2019-03-16T17:24:43.565Z,72.63
2019-03-16T17:29:45.191Z,72.59
2019-03-16T17:34:46.759Z,72.60
2019-03-16T17:39:48.469Z,72.55
2019-03-16T17:44:51.182Z,72.49
2019-03-16T17:49:52.936Z,72.39
2019-03-16T17:54:54.487Z,72.35
2019-03-16T17:59:56.041Z,72.30
2019-03-16T18:04:57.606Z,72.20
2019-03-16T18:09:59.136Z,72.16
2019-03-16T18:15:00.722Z,72.13
2019-03-16T18:20:03.068Z,72.10
2019-03-16T18:25:05.653Z,72.06
2019-03-16T18:30:09.296Z,72.02
2019-03-16T18:35:10.866Z,72.00
2019-03-16T18:40:12.546Z,71.98
2019-03-16T18:45:14.692Z,71.99
2019-03-16T18:50:16.369Z,71.95
2019-03-16T18:55:18.369Z,71.93
2019-03-16T19:00:20.015Z,71.92
2019-03-16T19:05:21.594Z,71.88
2019-03-16T19:10:23.156Z,71.90
2019-03-16T19:15:24.732Z,71.84
2019-03-16T19:20:26.301Z,71.83
2019-03-16T19:25:27.832Z,71.76
2019-03-16T19:30:29.496Z,71.75
2019-03-16T19:35:31.056Z,71.69
2019-03-16T19:40:32.606Z,71.62
2019-03-16T19:45:34.223Z,71.59
2019-03-16T19:50:35.793Z,71.55
2019-03-16T19:55:38.150Z,71.51
2019-03-16T20:00:39.707Z,71.40
2019-03-16T20:05:41.271Z,71.36
2019-03-16T20:10:42.848Z,71.29
2019-03-16T20:15:44.516Z,71.20
2019-03-16T20:20:46.088Z,71.08
2019-03-16T20:25:47.666Z,70.94
2019-03-16T20:30:49.300Z,70.82
2019-03-16T20:35:50.921Z,70.67
2019-03-16T20:40:52.507Z,70.60
2019-03-16T20:45:54.066Z,70.43
2019-03-16T20:50:55.622Z,70.33
2019-03-16T20:55:57.157Z,70.21
2019-03-16T21:00:58.758Z,70.14
2019-03-16T21:06:00.458Z,70.08
2019-03-16T21:11:02.156Z,70.01
2019-03-16T21:16:03.947Z,69.92
2019-03-16T21:21:05.580Z,69.82
2019-03-16T21:26:07.139Z,69.76
2019-03-16T21:31:08.803Z,69.69
2019-03-16T21:36:10.347Z,69.62
2019-03-16T21:41:12.081Z,69.55
2019-03-16T21:46:13.704Z,69.46
2019-03-16T21:51:15.296Z,69.41
2019-03-16T21:56:16.925Z,69.35
2019-03-16T22:01:18.525Z,69.27
2019-03-16T22:06:20.143Z,69.21
2019-03-16T22:11:21.800Z,69.13
2019-03-16T22:16:23.543Z,69.05
2019-03-16T22:21:25.156Z,68.97
2019-03-16T22:26:26.872Z,68.93
2019-03-16T22:31:28.451Z,68.86
2019-03-16T22:36:30.079Z,68.83
2019-03-16T22:41:31.651Z,68.75
2019-03-16T22:46:33.378Z,68.72
2019-03-16T22:51:35.011Z,68.66
2019-03-16T22:56:36.643Z,68.57
2019-03-16T23:01:38.303Z,68.52
2019-03-16T23:06:39.882Z,68.49
2019-03-16T23:11:41.482Z,68.47
2019-03-16T23:16:43.270Z,68.47
2019-03-16T23:21:44.931Z,68.41
2019-03-16T23:26:46.491Z,68.39
2019-03-16T23:31:48.083Z,68.32
2019-03-16T23:36:49.660Z,68.26
2019-03-16T23:41:51.274Z,68.22
2019-03-16T23:46:52.900Z,68.20
2019-03-16T23:51:54.514Z,68.15
2019-03-16T23:56:56.256Z,68.14
